Hester, Louisiana
Current Conditions -  °F | °C
As of 9:35 PM on Friday 24 Oct 2014 (Local Time) from K1L0 Reporting Station
Clear Clear  
Wind Chill: 58°   Ceiling: Unl
Heat Index: 58°   Visibility: 10mi
Dew Point: 54°   Wind: 0mph
Humidity: 88%   Direction: NA
Pressure: 30.1"   Gusts: NA
Location:  30.02°N, 90.78°W
Report Text: K1L0 250235Z AUTO 00000KT 10SM CLR 14/12 A3010 RMK AO2 T01420122
Loading
Personal Weather Stations






























Interactive Weather Map
Tropical Storm Tracking
New forecast layout! Learn more

10-Day Weather Forecast

Advertisements
Track Severe Weather on mobile